sensor_id;sensor_type;location;lat;lon;timestamp;temperature;humidity
67133;HTU21D;54052;53.542;49.408;2023-02-12T00:00:48;-7.04;80.50
67133;HTU21D;54052;53.542;49.408;2023-02-12T00:03:14;-7.00;80.36
67133;HTU21D;54052;53.542;49.408;2023-02-12T00:05:41;-6.97;80.33
67133;HTU21D;54052;53.542;49.408;2023-02-12T00:08:08;-6.94;80.27
67133;HTU21D;54052;53.542;49.408;2023-02-12T00:10:39;-6.94;79.71
67133;HTU21D;54052;53.542;49.408;2023-02-12T00:13:05;-6.93;79.83
67133;HTU21D;54052;53.542;49.408;2023-02-12T00:15:31;-6.95;79.40
67133;HTU21D;54052;53.542;49.408;2023-02-12T00:18:00;-6.92;79.62
67133;HTU21D;54052;53.542;49.408;2023-02-12T00:20:26;-6.89;79.03
67133;HTU21D;54052;53.542;49.408;2023-02-12T00:22:52;-6.94;78.72
67133;HTU21D;54052;53.542;49.408;2023-02-12T00:25:19;-6.98;78.79
67133;HTU21D;54052;53.542;49.408;2023-02-12T00:27:45;-6.97;78.69
67133;HTU21D;54052;53.542;49.408;2023-02-12T00:30:11;-6.97;78.88
67133;HTU21D;54052;53.542;49.408;2023-02-12T00:32:38;-6.93;78.40
67133;HTU21D;54052;53.542;49.408;2023-02-12T00:35:04;-6.91;79.09
67133;HTU21D;54052;53.542;49.408;2023-02-12T00:37:30;-6.95;79.11
67133;HTU21D;54052;53.542;49.408;2023-02-12T00:39:57;-6.89;78.53
67133;HTU21D;54052;53.542;49.408;2023-02-12T00:42:23;-6.81;77.60
67133;HTU21D;54052;53.542;49.408;2023-02-12T00:44:49;-6.90;77.21
67133;HTU21D;54052;53.542;49.408;2023-02-12T00:47:15;-7.09;78.77
67133;HTU21D;54052;53.542;49.408;2023-02-12T00:49:42;-7.22;78.35
67133;HTU21D;54052;53.542;49.408;2023-02-12T00:52:08;-7.29;78.11
67133;HTU21D;54052;53.542;49.408;2023-02-12T00:54:34;-7.33;78.85
67133;HTU21D;54052;53.542;49.408;2023-02-12T00:57:01;-7.41;78.82
67133;HTU21D;54052;53.542;49.408;2023-02-12T00:59:27;-7.49;78.98
67133;HTU21D;54052;53.542;49.408;2023-02-12T01:01:54;-7.57;78.99
67133;HTU21D;54052;53.542;49.408;2023-02-12T01:04:21;-7.60;78.60
67133;HTU21D;54052;53.542;49.408;2023-02-12T01:06:48;-7.60;78.30
67133;HTU21D;54052;53.542;49.408;2023-02-12T01:09:14;-7.57;78.08
67133;HTU21D;54052;53.542;49.408;2023-02-12T01:11:41;-7.63;77.76
67133;HTU21D;54052;53.542;49.408;2023-02-12T01:14:07;-7.72;78.96
67133;HTU21D;54052;53.542;49.408;2023-02-12T01:16:35;-7.80;78.67
67133;HTU21D;54052;53.542;49.408;2023-02-12T01:19:02;-7.79;78.58
67133;HTU21D;54052;53.542;49.408;2023-02-12T01:21:31;-7.85;78.67
67133;HTU21D;54052;53.542;49.408;2023-02-12T01:23:59;-7.86;78.29
67133;HTU21D;54052;53.542;49.408;2023-02-12T01:26:27;-7.92;78.29
67133;HTU21D;54052;53.542;49.408;2023-02-12T01:28:59;-7.95;78.64
67133;HTU21D;54052;53.542;49.408;2023-02-12T01:31:29;-7.95;78.47
67133;HTU21D;54052;53.542;49.408;2023-02-12T01:33:57;-7.96;78.70
67133;HTU21D;54052;53.542;49.408;2023-02-12T01:36:25;-7.99;78.79
67133;HTU21D;54052;53.542;49.408;2023-02-12T01:38:51;-8.01;78.93
67133;HTU21D;54052;53.542;49.408;2023-02-12T01:41:21;-7.91;78.56
67133;HTU21D;54052;53.542;49.408;2023-02-12T01:44:19;-7.82;78.30
67133;HTU21D;54052;53.542;49.408;2023-02-12T01:46:48;-7.85;78.34
67133;HTU21D;54052;53.542;49.408;2023-02-12T01:49:25;-7.82;78.38
67133;HTU21D;54052;53.542;49.408;2023-02-12T01:51:58;-7.76;78.13
67133;HTU21D;54052;53.542;49.408;2023-02-12T01:54:27;-7.71;77.78
67133;HTU21D;54052;53.542;49.408;2023-02-12T01:56:54;-7.69;77.45
67133;HTU21D;54052;53.542;49.408;2023-02-12T01:59:21;-7.65;77.53
67133;HTU21D;54052;53.542;49.408;2023-02-12T02:01:47;-7.70;77.27
67133;HTU21D;54052;53.542;49.408;2023-02-12T02:04:16;-7.84;78.21
67133;HTU21D;54052;53.542;49.408;2023-02-12T02:07:17;-7.93;77.88
67133;HTU21D;54052;53.542;49.408;2023-02-12T02:09:43;-7.94;77.76
67133;HTU21D;54052;53.542;49.408;2023-02-12T02:12:09;-8.07;78.42
67133;HTU21D;54052;53.542;49.408;2023-02-12T02:14:56;-8.01;78.68
67133;HTU21D;54052;53.542;49.408;2023-02-12T02:22:51;-7.95;79.14
67133;HTU21D;54052;53.542;49.408;2023-02-12T02:31:24;-8.05;78.63
67133;HTU21D;54052;53.542;49.408;2023-02-12T02:42:39;-8.03;78.44
67133;HTU21D;54052;53.542;49.408;2023-02-12T02:45:20;-8.08;79.61
67133;HTU21D;54052;53.542;49.408;2023-02-12T02:47:59;-8.26;80.10
67133;HTU21D;54052;53.542;49.408;2023-02-12T02:50:28;-8.21;80.04
67133;HTU21D;54052;53.542;49.408;2023-02-12T02:53:01;-8.16;79.24
67133;HTU21D;54052;53.542;49.408;2023-02-12T02:55:34;-8.21;79.24
67133;HTU21D;54052;53.542;49.408;2023-02-12T02:58:08;-8.25;78.69
67133;HTU21D;54052;53.542;49.408;2023-02-12T03:00:43;-8.35;79.64
67133;HTU21D;54052;53.542;49.408;2023-02-12T03:03:43;-8.37;79.53
67133;HTU21D;54052;53.542;49.408;2023-02-12T03:06:32;-8.45;79.89
67133;HTU21D;54052;53.542;49.408;2023-02-12T03:09:06;-8.56;81.11
67133;HTU21D;54052;53.542;49.408;2023-02-12T03:11:34;-8.62;81.01
67133;HTU21D;54052;53.542;49.408;2023-02-12T03:14:06;-8.62;81.16
67133;HTU21D;54052;53.542;49.408;2023-02-12T03:16:36;-8.54;80.72
67133;HTU21D;54052;53.542;49.408;2023-02-12T03:19:11;-8.54;80.71
67133;HTU21D;54052;53.542;49.408;2023-02-12T03:21:44;-8.53;80.85
67133;HTU21D;54052;53.542;49.408;2023-02-12T03:24:23;-8.54;80.65
67133;HTU21D;54052;53.542;49.408;2023-02-12T03:26:59;-8.50;79.81
67133;HTU21D;54052;53.542;49.408;2023-02-12T03:29:28;-8.60;79.81
67133;HTU21D;54052;53.542;49.408;2023-02-12T03:37:21;-8.74;80.09
67133;HTU21D;54052;53.542;49.408;2023-02-12T03:45:01;-8.72;78.88
67133;HTU21D;54052;53.542;49.408;2023-02-12T03:47:55;-8.78;79.15
67133;HTU21D;54052;53.542;49.408;2023-02-12T03:53:26;-8.79;79.62
67133;HTU21D;54052;53.542;49.408;2023-02-12T03:56:02;-8.74;78.50
67133;HTU21D;54052;53.542;49.408;2023-02-12T03:58:33;-8.81;78.70
67133;HTU21D;54052;53.542;49.408;2023-02-12T04:01:01;-8.85;78.84
67133;HTU21D;54052;53.542;49.408;2023-02-12T04:03:29;-8.90;78.69
67133;HTU21D;54052;53.542;49.408;2023-02-12T04:05:56;-8.92;79.67
67133;HTU21D;54052;53.542;49.408;2023-02-12T04:08:22;-8.84;79.16
67133;HTU21D;54052;53.542;49.408;2023-02-12T04:16:43;-8.70;78.08
67133;HTU21D;54052;53.542;49.408;2023-02-12T04:19:15;-8.75;77.54
67133;HTU21D;54052;53.542;49.408;2023-02-12T04:27:25;-8.66;77.12
67133;HTU21D;54052;53.542;49.408;2023-02-12T04:32:33;-8.60;77.56
67133;HTU21D;54052;53.542;49.408;2023-02-12T04:35:18;-8.57;77.60
67133;HTU21D;54052;53.542;49.408;2023-02-12T04:37:56;-8.50;76.47
67133;HTU21D;54052;53.542;49.408;2023-02-12T04:40:25;-8.38;76.50
67133;HTU21D;54052;53.542;49.408;2023-02-12T04:42:52;-8.30;76.01
67133;HTU21D;54052;53.542;49.408;2023-02-12T04:45:28;-8.24;75.50
67133;HTU21D;54052;53.542;49.408;2023-02-12T04:47:55;-8.21;75.34
67133;HTU21D;54052;53.542;49.408;2023-02-12T04:50:22;-8.27;75.91
67133;HTU21D;54052;53.542;49.408;2023-02-12T04:52:48;-8.43;76.53
67133;HTU21D;54052;53.542;49.408;2023-02-12T04:55:15;-8.43;76.73
67133;HTU21D;54052;53.542;49.408;2023-02-12T04:57:41;-8.30;76.28
67133;HTU21D;54052;53.542;49.408;2023-02-12T05:00:11;-8.23;75.93
67133;HTU21D;54052;53.542;49.408;2023-02-12T05:02:38;-8.23;75.88
67133;HTU21D;54052;53.542;49.408;2023-02-12T05:05:04;-8.34;76.45
67133;HTU21D;54052;53.542;49.408;2023-02-12T05:07:31;-8.24;75.95
67133;HTU21D;54052;53.542;49.408;2023-02-12T05:09:57;-8.12;75.51
67133;HTU21D;54052;53.542;49.408;2023-02-12T05:12:23;-8.05;75.05
67133;HTU21D;54052;53.542;49.408;2023-02-12T05:14:49;-8.09;75.52
67133;HTU21D;54052;53.542;49.408;2023-02-12T05:17:16;-7.99;75.15
67133;HTU21D;54052;53.542;49.408;2023-02-12T05:19:42;-7.82;74.42
67133;HTU21D;54052;53.542;49.408;2023-02-12T05:22:08;-7.59;73.36
67133;HTU21D;54052;53.542;49.408;2023-02-12T05:24:36;-7.50;73.03
67133;HTU21D;54052;53.542;49.408;2023-02-12T05:27:02;-7.44;72.53
67133;HTU21D;54052;53.542;49.408;2023-02-12T05:29:28;-7.34;72.16
67133;HTU21D;54052;53.542;49.408;2023-02-12T05:31:54;-7.23;71.59
67133;HTU21D;54052;53.542;49.408;2023-02-12T05:34:21;-7.12;71.51
67133;HTU21D;54052;53.542;49.408;2023-02-12T05:36:47;-7.07;71.85
67133;HTU21D;54052;53.542;49.408;2023-02-12T05:39:14;-7.19;72.42
67133;HTU21D;54052;53.542;49.408;2023-02-12T05:41:40;-7.21;72.66
67133;HTU21D;54052;53.542;49.408;2023-02-12T05:44:06;-7.23;73.03
67133;HTU21D;54052;53.542;49.408;2023-02-12T05:46:33;-7.10;72.68
67133;HTU21D;54052;53.542;49.408;2023-02-12T05:48:59;-6.96;72.56
67133;HTU21D;54052;53.542;49.408;2023-02-12T05:51:26;-6.86;72.45
67133;HTU21D;54052;53.542;49.408;2023-02-12T05:53:57;-6.56;71.30
67133;HTU21D;54052;53.542;49.408;2023-02-12T05:56:29;-6.43;72.26
67133;HTU21D;54052;53.542;49.408;2023-02-12T05:59:02;-6.30;70.79
67133;HTU21D;54052;53.542;49.408;2023-02-12T06:01:31;-6.23;71.08
67133;HTU21D;54052;53.542;49.408;2023-02-12T06:03:59;-6.09;70.64
67133;HTU21D;54052;53.542;49.408;2023-02-12T06:06:27;-5.98;69.95
67133;HTU21D;54052;53.542;49.408;2023-02-12T06:08:54;-5.89;70.23
67133;HTU21D;54052;53.542;49.408;2023-02-12T06:11:22;-5.77;69.90
67133;HTU21D;54052;53.542;49.408;2023-02-12T06:13:48;-5.64;69.67
67133;HTU21D;54052;53.542;49.408;2023-02-12T06:16:23;-5.47;68.54
67133;HTU21D;54052;53.542;49.408;2023-02-12T06:18:51;-5.55;69.30
67133;HTU21D;54052;53.542;49.408;2023-02-12T06:21:19;-5.70;69.70
67133;HTU21D;54052;53.542;49.408;2023-02-12T06:23:47;-5.57;69.68
67133;HTU21D;54052;53.542;49.408;2023-02-12T06:26:14;-5.54;70.35
67133;HTU21D;54052;53.542;49.408;2023-02-12T06:28:40;-5.34;69.23
67133;HTU21D;54052;53.542;49.408;2023-02-12T06:31:21;-5.31;69.52
67133;HTU21D;54052;53.542;49.408;2023-02-12T06:33:48;-5.08;68.57
67133;HTU21D;54052;53.542;49.408;2023-02-12T06:36:14;-4.99;68.85
67133;HTU21D;54052;53.542;49.408;2023-02-12T06:38:41;-4.75;68.58
67133;HTU21D;54052;53.542;49.408;2023-02-12T06:41:08;-4.73;68.73
67133;HTU21D;54052;53.542;49.408;2023-02-12T06:43:34;-4.78;67.94
67133;HTU21D;54052;53.542;49.408;2023-02-12T06:46:01;-4.66;68.29
67133;HTU21D;54052;53.542;49.408;2023-02-12T06:48:28;-4.58;68.23
67133;HTU21D;54052;53.542;49.408;2023-02-12T06:50:54;-4.50;67.77
67133;HTU21D;54052;53.542;49.408;2023-02-12T06:53:20;-4.36;66.81
67133;HTU21D;54052;53.542;49.408;2023-02-12T06:55:47;-4.39;67.65
67133;HTU21D;54052;53.542;49.408;2023-02-12T06:58:13;-4.25;67.19
67133;HTU21D;54052;53.542;49.408;2023-02-12T07:00:39;-4.05;66.39
67133;HTU21D;54052;53.542;49.408;2023-02-12T07:03:05;-4.01;66.63
67133;HTU21D;54052;53.542;49.408;2023-02-12T07:05:32;-4.08;66.96
67133;HTU21D;54052;53.542;49.408;2023-02-12T07:08:02;-3.98;67.10
67133;HTU21D;54052;53.542;49.408;2023-02-12T07:10:28;-4.06;67.13
67133;HTU21D;54052;53.542;49.408;2023-02-12T07:12:55;-3.99;67.18
67133;HTU21D;54052;53.542;49.408;2023-02-12T07:15:21;-4.14;68.04
67133;HTU21D;54052;53.542;49.408;2023-02-12T07:17:47;-4.27;67.99
67133;HTU21D;54052;53.542;49.408;2023-02-12T07:20:14;-4.23;68.28
67133;HTU21D;54052;53.542;49.408;2023-02-12T07:22:40;-4.19;68.17
67133;HTU21D;54052;53.542;49.408;2023-02-12T07:25:06;-4.23;69.29
67133;HTU21D;54052;53.542;49.408;2023-02-12T07:27:36;-4.19;68.48
67133;HTU21D;54052;53.542;49.408;2023-02-12T07:30:06;-4.11;68.45
67133;HTU21D;54052;53.542;49.408;2023-02-12T07:32:33;-4.26;69.05
67133;HTU21D;54052;53.542;49.408;2023-02-12T07:35:00;-4.26;69.22
67133;HTU21D;54052;53.542;49.408;2023-02-12T07:37:26;-4.21;69.02
67133;HTU21D;54052;53.542;49.408;2023-02-12T07:39:53;-4.08;68.49
67133;HTU21D;54052;53.542;49.408;2023-02-12T07:42:19;-4.12;68.97
67133;HTU21D;54052;53.542;49.408;2023-02-12T07:44:47;-4.31;69.31
67133;HTU21D;54052;53.542;49.408;2023-02-12T07:47:15;-4.13;69.10
67133;HTU21D;54052;53.542;49.408;2023-02-12T07:49:41;-4.12;68.82
67133;HTU21D;54052;53.542;49.408;2023-02-12T07:52:08;-4.14;69.03
67133;HTU21D;54052;53.542;49.408;2023-02-12T07:54:34;-3.97;68.67
67133;HTU21D;54052;53.542;49.408;2023-02-12T07:57:00;-3.99;68.84
67133;HTU21D;54052;53.542;49.408;2023-02-12T07:59:26;-3.97;68.91
67133;HTU21D;54052;53.542;49.408;2023-02-12T08:01:53;-3.99;68.85
67133;HTU21D;54052;53.542;49.408;2023-02-12T08:04:23;-3.98;69.41
67133;HTU21D;54052;53.542;49.408;2023-02-12T08:06:51;-4.17;69.61
67133;HTU21D;54052;53.542;49.408;2023-02-12T08:09:22;-4.27;70.72
67133;HTU21D;54052;53.542;49.408;2023-02-12T08:11:48;-4.30;70.81
67133;HTU21D;54052;53.542;49.408;2023-02-12T08:14:17;-4.32;71.18
67133;HTU21D;54052;53.542;49.408;2023-02-12T08:16:45;-4.16;69.86
67133;HTU21D;54052;53.542;49.408;2023-02-12T08:19:12;-3.98;69.10
67133;HTU21D;54052;53.542;49.408;2023-02-12T08:21:39;-3.92;68.87
67133;HTU21D;54052;53.542;49.408;2023-02-12T08:24:05;-3.87;68.38
67133;HTU21D;54052;53.542;49.408;2023-02-12T08:26:34;-3.92;69.00
67133;HTU21D;54052;53.542;49.408;2023-02-12T08:29:03;-3.81;68.80
67133;HTU21D;54052;53.542;49.408;2023-02-12T08:31:33;-3.65;67.17
67133;HTU21D;54052;53.542;49.408;2023-02-12T08:34:00;-3.57;67.85
67133;HTU21D;54052;53.542;49.408;2023-02-12T08:36:35;-3.57;66.95
67133;HTU21D;54052;53.542;49.408;2023-02-12T08:39:02;-3.58;67.60
67133;HTU21D;54052;53.542;49.408;2023-02-12T08:41:29;-3.40;66.43
67133;HTU21D;54052;53.542;49.408;2023-02-12T08:43:58;-3.39;66.69
67133;HTU21D;54052;53.542;49.408;2023-02-12T08:46:33;-3.01;65.91
67133;HTU21D;54052;53.542;49.408;2023-02-12T08:49:02;-2.75;64.72
67133;HTU21D;54052;53.542;49.408;2023-02-12T08:51:31;-2.71;64.88
67133;HTU21D;54052;53.542;49.408;2023-02-12T08:54:00;-2.51;63.92
67133;HTU21D;54052;53.542;49.408;2023-02-12T08:56:28;-2.32;63.38
67133;HTU21D;54052;53.542;49.408;2023-02-12T08:58:59;-2.00;62.15
67133;HTU21D;54052;53.542;49.408;2023-02-12T09:01:28;-2.12;62.31
67133;HTU21D;54052;53.542;49.408;2023-02-12T09:03:54;-2.15;62.73
67133;HTU21D;54052;53.542;49.408;2023-02-12T09:06:23;-2.17;62.67
67133;HTU21D;54052;53.542;49.408;2023-02-12T09:08:50;-2.22;63.38
67133;HTU21D;54052;53.542;49.408;2023-02-12T09:11:20;-2.08;62.66
67133;HTU21D;54052;53.542;49.408;2023-02-12T09:13:57;-2.30;63.45
67133;HTU21D;54052;53.542;49.408;2023-02-12T09:16:24;-1.97;61.99
67133;HTU21D;54052;53.542;49.408;2023-02-12T09:18:51;-1.58;61.16
67133;HTU21D;54052;53.542;49.408;2023-02-12T09:21:17;-1.55;61.07
67133;HTU21D;54052;53.542;49.408;2023-02-12T09:23:45;-1.46;60.83
67133;HTU21D;54052;53.542;49.408;2023-02-12T09:26:14;-1.57;61.38
67133;HTU21D;54052;53.542;49.408;2023-02-12T09:28:41;-1.74;61.83
67133;HTU21D;54052;53.542;49.408;2023-02-12T09:31:16;-1.61;61.35
67133;HTU21D;54052;53.542;49.408;2023-02-12T09:33:43;-1.40;60.31
67133;HTU21D;54052;53.542;49.408;2023-02-12T09:36:13;-1.10;60.37
67133;HTU21D;54052;53.542;49.408;2023-02-12T09:38:41;-1.23;60.70
67133;HTU21D;54052;53.542;49.408;2023-02-12T09:44:21;-1.36;61.45
67133;HTU21D;54052;53.542;49.408;2023-02-12T09:52:26;-1.27;61.50
67133;HTU21D;54052;53.542;49.408;2023-02-12T09:54:53;-1.33;61.13
67133;HTU21D;54052;53.542;49.408;2023-02-12T09:57:33;-1.55;61.71
67133;HTU21D;54052;53.542;49.408;2023-02-12T10:02:35;-1.74;61.83
67133;HTU21D;54052;53.542;49.408;2023-02-12T10:05:02;-1.74;62.65
67133;HTU21D;54052;53.542;49.408;2023-02-12T10:07:42;-1.74;62.01
67133;HTU21D;54052;53.542;49.408;2023-02-12T10:10:27;-1.75;63.09
67133;HTU21D;54052;53.542;49.408;2023-02-12T10:13:07;-1.71;62.94
67133;HTU21D;54052;53.542;49.408;2023-02-12T10:15:55;-1.62;62.58
67133;HTU21D;54052;53.542;49.408;2023-02-12T10:26:51;-1.60;62.25
67133;HTU21D;54052;53.542;49.408;2023-02-12T10:29:22;-1.57;62.24
67133;HTU21D;54052;53.542;49.408;2023-02-12T10:32:02;-1.39;61.78
67133;HTU21D;54052;53.542;49.408;2023-02-12T10:34:33;-1.29;61.92
67133;HTU21D;54052;53.542;49.408;2023-02-12T10:37:15;-1.18;61.25
67133;HTU21D;54052;53.542;49.408;2023-02-12T10:39:57;-1.11;60.81
67133;HTU21D;54052;53.542;49.408;2023-02-12T10:42:37;-1.26;61.34
67133;HTU21D;54052;53.542;49.408;2023-02-12T10:45:05;-1.41;62.35
67133;HTU21D;54052;53.542;49.408;2023-02-12T10:47:31;-1.43;62.28
67133;HTU21D;54052;53.542;49.408;2023-02-12T10:50:00;-1.68;63.47
67133;HTU21D;54052;53.542;49.408;2023-02-12T10:52:55;-1.80;65.37
67133;HTU21D;54052;53.542;49.408;2023-02-12T10:55:33;-2.09;66.18
67133;HTU21D;54052;53.542;49.408;2023-02-12T10:58:04;-2.05;64.36
67133;HTU21D;54052;53.542;49.408;2023-02-12T11:00:43;-2.08;64.95
67133;HTU21D;54052;53.542;49.408;2023-02-12T11:05:43;-2.16;66.10
67133;HTU21D;54052;53.542;49.408;2023-02-12T11:08:36;-2.34;66.96
67133;HTU21D;54052;53.542;49.408;2023-02-12T11:14:19;-2.13;66.17
67133;HTU21D;54052;53.542;49.408;2023-02-12T11:16:54;-2.13;66.75
67133;HTU21D;54052;53.542;49.408;2023-02-12T11:19:24;-1.99;66.43
67133;HTU21D;54052;53.542;49.408;2023-02-12T11:22:04;-1.87;65.91
67133;HTU21D;54052;53.542;49.408;2023-02-12T11:24:33;-1.85;65.98
67133;HTU21D;54052;53.542;49.408;2023-02-12T11:27:12;-1.89;66.09
67133;HTU21D;54052;53.542;49.408;2023-02-12T11:29:43;-1.90;66.40
67133;HTU21D;54052;53.542;49.408;2023-02-12T11:32:18;-1.82;66.13
67133;HTU21D;54052;53.542;49.408;2023-02-12T11:35:08;-1.85;66.88
67133;HTU21D;54052;53.542;49.408;2023-02-12T11:37:39;-1.89;67.01
67133;HTU21D;54052;53.542;49.408;2023-02-12T11:40:06;-1.95;67.55
67133;HTU21D;54052;53.542;49.408;2023-02-12T11:42:34;-1.80;66.66
67133;HTU21D;54052;53.542;49.408;2023-02-12T11:45:03;-1.84;66.67
67133;HTU21D;54052;53.542;49.408;2023-02-12T11:47:33;-1.85;67.05
67133;HTU21D;54052;53.542;49.408;2023-02-12T11:50:26;-1.82;66.94
67133;HTU21D;54052;53.542;49.408;2023-02-12T11:52:56;-1.76;66.77
67133;HTU21D;54052;53.542;49.408;2023-02-12T11:55:30;-1.79;66.47
67133;HTU21D;54052;53.542;49.408;2023-02-12T11:58:19;-2.13;67.97
67133;HTU21D;54052;53.542;49.408;2023-02-12T12:00:52;-2.21;68.23
67133;HTU21D;54052;53.542;49.408;2023-02-12T12:03:22;-2.23;67.97
67133;HTU21D;54052;53.542;49.408;2023-02-12T12:05:52;-2.05;67.07
67133;HTU21D;54052;53.542;49.408;2023-02-12T12:08:39;-2.05;67.08
67133;HTU21D;54052;53.542;49.408;2023-02-12T12:11:17;-2.18;67.10
67133;HTU21D;54052;53.542;49.408;2023-02-12T12:14:06;-2.20;67.75
67133;HTU21D;54052;53.542;49.408;2023-02-12T12:16:42;-2.15;67.61
67133;HTU21D;54052;53.542;49.408;2023-02-12T12:19:40;-2.30;67.81
67133;HTU21D;54052;53.542;49.408;2023-02-12T12:25:34;-2.45;68.90
67133;HTU21D;54052;53.542;49.408;2023-02-12T12:28:10;-2.59;68.94
67133;HTU21D;54052;53.542;49.408;2023-02-12T12:30:54;-2.56;68.75
67133;HTU21D;54052;53.542;49.408;2023-02-12T12:36:08;-2.58;68.95
67133;HTU21D;54052;53.542;49.408;2023-02-12T12:39:04;-2.89;69.04
67133;HTU21D;54052;53.542;49.408;2023-02-12T12:50:26;-3.05;69.76
67133;HTU21D;54052;53.542;49.408;2023-02-12T12:53:03;-3.04;69.77
67133;HTU21D;54052;53.542;49.408;2023-02-12T12:55:51;-3.01;69.42
67133;HTU21D;54052;53.542;49.408;2023-02-12T13:01:24;-3.19;69.90
67133;HTU21D;54052;53.542;49.408;2023-02-12T13:04:26;-3.41;71.25
67133;HTU21D;54052;53.542;49.408;2023-02-12T13:10:14;-3.62;71.90
67133;HTU21D;54052;53.542;49.408;2023-02-12T13:12:59;-3.72;72.67
67133;HTU21D;54052;53.542;49.408;2023-02-12T13:23:54;-3.71;72.41
67133;HTU21D;54052;53.542;49.408;2023-02-12T13:26:48;-3.91;73.64
67133;HTU21D;54052;53.542;49.408;2023-02-12T13:29:38;-3.99;73.93
67133;HTU21D;54052;53.542;49.408;2023-02-12T13:34:45;-4.15;73.68
67133;HTU21D;54052;53.542;49.408;2023-02-12T13:37:17;-4.10;73.99
67133;HTU21D;54052;53.542;49.408;2023-02-12T13:39:47;-4.01;73.74
67133;HTU21D;54052;53.542;49.408;2023-02-12T13:42:36;-4.15;74.55
67133;HTU21D;54052;53.542;49.408;2023-02-12T13:56:44;-4.10;72.80
67133;HTU21D;54052;53.542;49.408;2023-02-12T14:07:45;-4.09;72.36
67133;HTU21D;54052;53.542;49.408;2023-02-12T14:10:31;-4.22;73.39
67133;HTU21D;54052;53.542;49.408;2023-02-12T14:13:20;-4.36;74.22
67133;HTU21D;54052;53.542;49.408;2023-02-12T14:15:52;-4.30;73.41
67133;HTU21D;54052;53.542;49.408;2023-02-12T14:18:33;-4.40;73.75
67133;HTU21D;54052;53.542;49.408;2023-02-12T14:23:40;-4.54;74.24
67133;HTU21D;54052;53.542;49.408;2023-02-12T14:26:15;-4.52;73.91
67133;HTU21D;54052;53.542;49.408;2023-02-12T14:33:45;-4.25;73.20
67133;HTU21D;54052;53.542;49.408;2023-02-12T14:36:18;-4.28;73.68
67133;HTU21D;54052;53.542;49.408;2023-02-12T14:41:39;-4.52;74.72
67133;HTU21D;54052;53.542;49.408;2023-02-12T14:47:00;-4.44;74.59
67133;HTU21D;54052;53.542;49.408;2023-02-12T14:49:51;-4.30;73.93
67133;HTU21D;54052;53.542;49.408;2023-02-12T14:52:25;-4.22;73.40
67133;HTU21D;54052;53.542;49.408;2023-02-12T14:55:02;-4.20;72.46
67133;HTU21D;54052;53.542;49.408;2023-02-12T14:57:37;-4.31;72.61
67133;HTU21D;54052;53.542;49.408;2023-02-12T15:05:42;-4.57;74.16
67133;HTU21D;54052;53.542;49.408;2023-02-12T15:21:46;-4.52;73.92
67133;HTU21D;54052;53.542;49.408;2023-02-12T15:24:21;-4.49;73.61
67133;HTU21D;54052;53.542;49.408;2023-02-12T15:26:50;-4.44;73.74
67133;HTU21D;54052;53.542;49.408;2023-02-12T15:31:54;-4.36;73.69
67133;HTU21D;54052;53.542;49.408;2023-02-12T15:34:25;-4.44;73.83
67133;HTU21D;54052;53.542;49.408;2023-02-12T15:36:55;-4.41;73.13
67133;HTU21D;54052;53.542;49.408;2023-02-12T15:39:22;-4.36;73.09
67133;HTU21D;54052;53.542;49.408;2023-02-12T15:41:49;-4.31;72.68
67133;HTU21D;54052;53.542;49.408;2023-02-12T15:44:29;-4.28;72.68
67133;HTU21D;54052;53.542;49.408;2023-02-12T15:47:02;-4.45;73.85
67133;HTU21D;54052;53.542;49.408;2023-02-12T15:49:33;-4.73;75.22
67133;HTU21D;54052;53.542;49.408;2023-02-12T15:52:03;-4.76;74.80
67133;HTU21D;54052;53.542;49.408;2023-02-12T15:54:30;-4.89;75.38
67133;HTU21D;54052;53.542;49.408;2023-02-12T15:56:57;-4.97;75.25
67133;HTU21D;54052;53.542;49.408;2023-02-12T15:59:25;-4.94;75.28
67133;HTU21D;54052;53.542;49.408;2023-02-12T16:01:59;-4.80;74.83
67133;HTU21D;54052;53.542;49.408;2023-02-12T16:04:30;-4.83;74.73
67133;HTU21D;54052;53.542;49.408;2023-02-12T16:06:58;-4.90;74.75
67133;HTU21D;54052;53.542;49.408;2023-02-12T16:09:31;-4.93;74.87
67133;HTU21D;54052;53.542;49.408;2023-02-12T16:12:01;-4.96;75.05
67133;HTU21D;54052;53.542;49.408;2023-02-12T16:15:03;-5.08;75.83
67133;HTU21D;54052;53.542;49.408;2023-02-12T16:17:34;-5.04;75.43
67133;HTU21D;54052;53.542;49.408;2023-02-12T16:20:05;-5.10;76.04
67133;HTU21D;54052;53.542;49.408;2023-02-12T16:22:39;-5.14;75.86
67133;HTU21D;54052;53.542;49.408;2023-02-12T16:28:07;-5.12;75.87
67133;HTU21D;54052;53.542;49.408;2023-02-12T16:30:42;-4.95;75.03
67133;HTU21D;54052;53.542;49.408;2023-02-12T16:36:09;-4.81;74.51
67133;HTU21D;54052;53.542;49.408;2023-02-12T16:38:45;-4.83;74.12
67133;HTU21D;54052;53.542;49.408;2023-02-12T16:44:18;-4.90;74.46
67133;HTU21D;54052;53.542;49.408;2023-02-12T16:46:50;-5.04;75.46
67133;HTU21D;54052;53.542;49.408;2023-02-12T16:49:19;-5.16;75.44
67133;HTU21D;54052;53.542;49.408;2023-02-12T16:51:46;-5.11;75.40
67133;HTU21D;54052;53.542;49.408;2023-02-12T16:56:51;-4.98;74.73
67133;HTU21D;54052;53.542;49.408;2023-02-12T16:59:18;-5.10;74.56
67133;HTU21D;54052;53.542;49.408;2023-02-12T17:01:59;-5.09;74.65
67133;HTU21D;54052;53.542;49.408;2023-02-12T17:04:26;-5.10;74.77
67133;HTU21D;54052;53.542;49.408;2023-02-12T17:06:52;-5.08;74.32
67133;HTU21D;54052;53.542;49.408;2023-02-12T17:09:18;-5.13;74.72
67133;HTU21D;54052;53.542;49.408;2023-02-12T17:11:45;-5.14;74.69
67133;HTU21D;54052;53.542;49.408;2023-02-12T17:14:14;-5.25;75.65
67133;HTU21D;54052;53.542;49.408;2023-02-12T17:16:42;-5.32;75.27
67133;HTU21D;54052;53.542;49.408;2023-02-12T17:19:08;-5.40;75.64
67133;HTU21D;54052;53.542;49.408;2023-02-12T17:21:36;-5.28;74.99
67133;HTU21D;54052;53.542;49.408;2023-02-12T17:24:24;-5.30;76.20
67133;HTU21D;54052;53.542;49.408;2023-02-12T17:26:52;-5.40;75.99
67133;HTU21D;54052;53.542;49.408;2023-02-12T17:29:20;-5.35;75.47
67133;HTU21D;54052;53.542;49.408;2023-02-12T17:31:47;-5.26;74.99
67133;HTU21D;54052;53.542;49.408;2023-02-12T17:34:15;-5.24;74.51
67133;HTU21D;54052;53.542;49.408;2023-02-12T17:36:41;-5.25;74.99
67133;HTU21D;54052;53.542;49.408;2023-02-12T17:39:12;-5.31;74.82
67133;HTU21D;54052;53.542;49.408;2023-02-12T17:41:38;-5.35;75.51
67133;HTU21D;54052;53.542;49.408;2023-02-12T17:44:06;-5.37;75.05
67133;HTU21D;54052;53.542;49.408;2023-02-12T17:46:32;-5.40;75.79
67133;HTU21D;54052;53.542;49.408;2023-02-12T17:48:59;-5.45;75.35
67133;HTU21D;54052;53.542;49.408;2023-02-12T17:51:26;-5.37;75.18
67133;HTU21D;54052;53.542;49.408;2023-02-12T17:53:52;-5.52;75.53
67133;HTU21D;54052;53.542;49.408;2023-02-12T17:56:20;-5.61;76.08
67133;HTU21D;54052;53.542;49.408;2023-02-12T17:58:47;-5.61;75.60
67133;HTU21D;54052;53.542;49.408;2023-02-12T18:01:16;-5.61;76.36
67133;HTU21D;54052;53.542;49.408;2023-02-12T18:03:43;-5.57;76.29
67133;HTU21D;54052;53.542;49.408;2023-02-12T18:06:10;-5.56;75.43
67133;HTU21D;54052;53.542;49.408;2023-02-12T18:08:40;-5.44;75.30
67133;HTU21D;54052;53.542;49.408;2023-02-12T18:11:08;-5.45;74.83
67133;HTU21D;54052;53.542;49.408;2023-02-12T18:13:36;-5.59;75.53
67133;HTU21D;54052;53.542;49.408;2023-02-12T18:16:07;-5.53;75.00
67133;HTU21D;54052;53.542;49.408;2023-02-12T18:18:35;-5.45;74.57